Terminal Aerodrome Forecast
Issued by NWS

Home | Current Version | Previous Version | Text Only | Print | Product List | Glossary On
Versions: 1 2 3 4 5 6 7 8 9 10 11 12 13 14 15 16 17
000
FTUS44 KCRP 302205 AAA
TAFLRD
TAF AMD
KLRD 302205Z 3022/3118 09007KT 5SM SHRA SCT001 BKN010 OVC020
      TEMPO 3022/3024 VRB20G40KT 2SM TSRA OVC010CB
     FM310000 10005KT P6SM VCTS SCT025CB
      TEMPO 3102/3105 3SM TSRA BKN025CB
     FM310800 09004KT 6SM BR BKN015
     FM311500 09007KT P6SM VCSH BKN025=

USA.gov is the U.S. government's official web portal to all federal, state and local government web resources and services.